Lena-s. — V2EC7 — position and weather

sailwx.info

Track history (hours):
 
Tides and Currents Weather Stations Pressure Air Temp Water Temp Dewpoint Dewpoint Depression Visibility Wind Speed Wind Dir Waves Ship Positions

Lena-s.

Last reported at 2016-Apr-11 02:33 UTC. Time now 2016-May-06 14:53 UTC.
Position N 31°57' W 080°42'.
Warning: this ship's position is 25 days out of date.

Length 261 m; draft 11 m.

Type: Ship (hazmat cat D). MMSI: 305386000.

Date/timePositionNaut miles runAvg speedWind from/ knotsBaromVisibWave heightAir tempDewpointWater temp
2016-Apr-11 02:33N 31°57' W 080°42'1111.4
2016-Apr-11 01:34N 32°02' W 080°54'8 7.9
2016-Apr-11 00:34N 32°05' W 081°02'5 4.9
2016-Apr-10 23:33N 32°07' W 081°08'1 1.1
2016-Apr-10 22:31N 32°08' W 081°08'0 0.0
2016-Apr-10 21:31N 32°08' W 081°08'0 0.0
2016-Apr-10 20:31N 32°08' W 081°08'0 0.0
2016-Apr-10 19:31N 32°08' W 081°08'0 0.0
2016-Apr-10 18:31N 32°08' W 081°08'0 0.0
2016-Apr-10 17:31N 32°08' W 081°08'0 0.0
2016-Apr-10 16:28N 32°08' W 081°08'0 0.0
2016-Apr-10 15:31N 32°08' W 081°08'0 0.0
2016-Apr-10 14:28N 32°08' W 081°08'0 0.0
2016-Apr-10 13:31N 32°08' W 081°08'0 0.0
2016-Apr-10 12:28N 32°08' W 081°08'0 0.0
2016-Apr-10 11:31N 32°08' W 081°08'0 0.0
2016-Apr-10 10:31N 32°08' W 081°08'3 2.8
2016-Apr-10 09:33N 32°06' W 081°06'5 4.9
2016-Apr-10 08:33N 32°06' W 081°01'9 9.1
2016-Apr-10 07:33N 32°02' W 080°51'1111.1
2016-Apr-10 06:33N 31°57' W 080°39'1010.0
2016-Apr-10 05:33N 31°59' W 080°28'37111.6
2016-Apr-08 21:33N 36°54' W 075°55'1312.9
2016-Apr-08 20:33N 36°59' W 076°10'9 8.6
2016-Apr-08 19:33N 36°56' W 076°20'0 0.0
2016-Apr-08 16:19N 36°56' W 076°20'0 0.0
2016-Apr-08 09:11N 36°56' W 076°20'3 4.4
2016-Apr-08 08:33N 36°58' W 076°20'1312.6
2016-Apr-08 07:33N 36°58' W 076°04'1010.0
2016-Apr-08 06:33N 36°54' W 075°53'18710.2
2016-Apr-07 12:14N 39°36' W 073°52'811.9
2016-Apr-07 11:32N 39°44' W 073°52'1212.0
2016-Apr-07 10:33N 39°55' W 073°51'3110.3
2016-Apr-07 07:32N 40°27' W 073°48'1010.1
2016-Apr-07 06:33N 40°31' W 073°59'10 9.9
2016-Apr-07 05:33N 40°39' W 074°08'2 1.6
2016-Apr-07 04:33N 40°40' W 074°08'0 0.0
2016-Apr-07 03:33N 40°40' W 074°08'0 0.0
2016-Apr-07 02:33N 40°40' W 074°08'0 0.0
2016-Apr-07 01:33N 40°40' W 074°08'0 0.0
2016-Apr-07 00:33N 40°40' W 074°08'0 0.0
2016-Apr-06 23:33N 40°40' W 074°08'0 0.0
2016-Apr-06 22:33N 40°40' W 074°08'0 0.0
2016-Apr-06 21:30N 40°40' W 074°08'0 0.0
2016-Apr-06 20:33N 40°40' W 074°08'0 0.0
2016-Apr-06 19:33N 40°40' W 074°08'0 0.0
2016-Apr-06 18:33N 40°40' W 074°08'0 0.0
2016-Apr-06 17:33N 40°40' W 074°08'0 0.0
2016-Apr-06 16:30N 40°40' W 074°08'0 0.0
2016-Apr-06 15:33N 40°40' W 074°08'0 0.0
2016-Apr-06 14:33N 40°40' W 074°08'0 0.0
2016-Apr-06 13:33N 40°40' W 074°08'0 0.0
2016-Apr-06 12:33N 40°40' W 074°08'0 0.0
2016-Apr-06 11:33N 40°40' W 074°08'0 0.0
2016-Apr-06 10:30N 40°40' W 074°08'0 0.0
2016-Apr-06 09:33N 40°40' W 074°09'0 0.0
2016-Apr-06 08:33N 40°40' W 074°08'0 0.0
2016-Apr-06 07:33N 40°40' W 074°08'0 0.0
2016-Apr-06 06:33N 40°40' W 074°08'0 0.0
2016-Apr-06 05:33N 40°40' W 074°09'0 0.0
2016-Apr-06 04:33N 40°40' W 074°08'0 0.0
2016-Apr-06 03:33N 40°40' W 074°08'0 0.0
2016-Apr-06 02:33N 40°40' W 074°09'0 0.0
2016-Apr-06 01:33N 40°40' W 074°08'0 0.0
2016-Apr-06 00:33N 40°40' W 074°08'0 0.0
2016-Apr-05 23:33N 40°40' W 074°08'0 0.0
2016-Apr-05 22:32N 40°40' W 074°08'0 0.0
2016-Apr-05 21:29N 40°40' W 074°08'3 3.4
2016-Apr-05 20:33N 40°39' W 074°05'1211.6
2016-Apr-05 19:33N 40°30' W 073°56'  
Track history (hours):
 
Tides and Currents Weather Stations Pressure Air Temp Water Temp Dewpoint Dewpoint Depression Visibility Wind Speed Wind Dir Waves Ship Positions

Lena-s.

Last reported at 2016-Apr-11 02:33 UTC. Time now 2016-May-06 14:53 UTC.
Position N 31°57' W 080°42'.
Warning: this ship's position is 25 days out of date.

Length 261 m; draft 11 m.

Type: Ship (hazmat cat D). MMSI: 305386000.

Date/timePositionNaut miles runAvg speedWind from/ knotsBaromVisibWave heightAir tempDewpointWater temp
2016-Apr-11 02:33N 31°57' W 080°42'1111.4
2016-Apr-11 01:34N 32°02' W 080°54'8 7.9
2016-Apr-11 00:34N 32°05' W 081°02'5 4.9
2016-Apr-10 23:33N 32°07' W 081°08'1 1.1
2016-Apr-10 22:31N 32°08' W 081°08'0 0.0
2016-Apr-10 21:31N 32°08' W 081°08'0 0.0
2016-Apr-10 20:31N 32°08' W 081°08'0 0.0
2016-Apr-10 19:31N 32°08' W 081°08'0 0.0
2016-Apr-10 18:31N 32°08' W 081°08'0 0.0
2016-Apr-10 17:31N 32°08' W 081°08'0 0.0
2016-Apr-10 16:28N 32°08' W 081°08'0 0.0
2016-Apr-10 15:31N 32°08' W 081°08'0 0.0
2016-Apr-10 14:28N 32°08' W 081°08'0 0.0
2016-Apr-10 13:31N 32°08' W 081°08'0 0.0
2016-Apr-10 12:28N 32°08' W 081°08'0 0.0
2016-Apr-10 11:31N 32°08' W 081°08'0 0.0
2016-Apr-10 10:31N 32°08' W 081°08'3 2.8
2016-Apr-10 09:33N 32°06' W 081°06'5 4.9
2016-Apr-10 08:33N 32°06' W 081°01'9 9.1
2016-Apr-10 07:33N 32°02' W 080°51'1111.1
2016-Apr-10 06:33N 31°57' W 080°39'1010.0
2016-Apr-10 05:33N 31°59' W 080°28'37111.6
2016-Apr-08 21:33N 36°54' W 075°55'1312.9
2016-Apr-08 20:33N 36°59' W 076°10'9 8.6
2016-Apr-08 19:33N 36°56' W 076°20'0 0.0
2016-Apr-08 16:19N 36°56' W 076°20'0 0.0
2016-Apr-08 09:11N 36°56' W 076°20'3 4.4
2016-Apr-08 08:33N 36°58' W 076°20'1312.6
2016-Apr-08 07:33N 36°58' W 076°04'1010.0
2016-Apr-08 06:33N 36°54' W 075°53'18710.2
2016-Apr-07 12:14N 39°36' W 073°52'811.9
2016-Apr-07 11:32N 39°44' W 073°52'1212.0
2016-Apr-07 10:33N 39°55' W 073°51'3110.3
2016-Apr-07 07:32N 40°27' W 073°48'1010.1
2016-Apr-07 06:33N 40°31' W 073°59'10 9.9
2016-Apr-07 05:33N 40°39' W 074°08'2 1.6
2016-Apr-07 04:33N 40°40' W 074°08'0 0.0
2016-Apr-07 03:33N 40°40' W 074°08'0 0.0
2016-Apr-07 02:33N 40°40' W 074°08'0 0.0
2016-Apr-07 01:33N 40°40' W 074°08'0 0.0
2016-Apr-07 00:33N 40°40' W 074°08'0 0.0
2016-Apr-06 23:33N 40°40' W 074°08'0 0.0
2016-Apr-06 22:33N 40°40' W 074°08'0 0.0
2016-Apr-06 21:30N 40°40' W 074°08'0 0.0
2016-Apr-06 20:33N 40°40' W 074°08'0 0.0
2016-Apr-06 19:33N 40°40' W 074°08'0 0.0
2016-Apr-06 18:33N 40°40' W 074°08'0 0.0
2016-Apr-06 17:33N 40°40' W 074°08'0 0.0
2016-Apr-06 16:30N 40°40' W 074°08'0 0.0
2016-Apr-06 15:33N 40°40' W 074°08'0 0.0
2016-Apr-06 14:33N 40°40' W 074°08'0 0.0
2016-Apr-06 13:33N 40°40' W 074°08'0 0.0
2016-Apr-06 12:33N 40°40' W 074°08'0 0.0
2016-Apr-06 11:33N 40°40' W 074°08'0 0.0
2016-Apr-06 10:30N 40°40' W 074°08'0 0.0
2016-Apr-06 09:33N 40°40' W 074°09'0 0.0
2016-Apr-06 08:33N 40°40' W 074°08'0 0.0
2016-Apr-06 07:33N 40°40' W 074°08'0 0.0
2016-Apr-06 06:33N 40°40' W 074°08'0 0.0
2016-Apr-06 05:33N 40°40' W 074°09'0 0.0
2016-Apr-06 04:33N 40°40' W 074°08'0 0.0
2016-Apr-06 03:33N 40°40' W 074°08'0 0.0
2016-Apr-06 02:33N 40°40' W 074°09'0 0.0
2016-Apr-06 01:33N 40°40' W 074°08'0 0.0
2016-Apr-06 00:33N 40°40' W 074°08'0 0.0
2016-Apr-05 23:33N 40°40' W 074°08'0 0.0
2016-Apr-05 22:32N 40°40' W 074°08'0 0.0
2016-Apr-05 21:29N 40°40' W 074°08'3 3.4
2016-Apr-05 20:33N 40°39' W 074°05'1211.6
2016-Apr-05 19:33N 40°30' W 073°56'  

Dump ship's entire track history